Time;durP1;ratioP1;P1;durP2;ratioP2;P2;SDS_P1;SDS_P2;PMS_P1;PMS_P2;Temp;Humidity;BMP_temperature;BMP_pressure;BME280_temperature;BME280_humidity;BME280_pressure;Samples;Min_cycle;Max_cycle;Signal;HPM_P1;HPM_P2
2021/04/21 00:00:23;;;;;;;27.62;17.65;;;;;;;10.75;63.62;99673.13;4336433;32;34855;-85
2021/04/21 00:02:52;;;;;;;22.02;17.02;;;;;;;10.63;64.02;99674.03;4336513;32;33925;-84
2021/04/21 00:05:20;;;;;;;24.40;16.37;;;;;;;10.82;63.79;99674.84;4348486;32;33965;-84
2021/04/21 00:07:49;;;;;;;22.60;15.85;;;;;;;10.76;63.79;99680.06;4336245;32;33974;-85
2021/04/21 00:10:19;;;;;;;23.75;16.58;;;;;;;10.78;63.82;99678.31;4348674;32;33994;-85
2021/04/21 00:12:47;;;;;;;23.90;16.00;;;;;;;10.92;63.30;99678.25;4348587;32;33483;-85
2021/04/21 00:15:19;;;;;;;25.33;16.73;;;;;;;10.93;63.09;99680.00;4348598;32;33868;-84
2021/04/21 00:17:49;;;;;;;22.83;16.10;;;;;;;10.99;63.13;99677.38;4348282;32;34385;-84
2021/04/21 00:20:18;;;;;;;22.20;16.37;;;;;;;10.82;63.34;99680.03;4348650;32;34296;-85
2021/04/21 00:22:50;;;;;;;23.87;16.92;;;;;;;10.85;63.28;99680.03;4336192;32;34802;-85
2021/04/21 00:25:18;;;;;;;;;;;;;;;10.89;62.96;99676.53;4348635;32;34347;-85
2021/04/21 00:27:45;;;;;;;21.35;15.68;;;;;;;10.84;63.04;99670.47;4348358;32;34002;-85
2021/04/21 00:30:14;;;;;;;21.83;15.75;;;;;;;10.84;62.90;99673.97;4348195;32;33573;-83
2021/04/21 00:32:45;;;;;;;20.67;15.07;;;;;;;10.83;62.86;99666.16;4323774;32;33258;-85
2021/04/21 00:35:15;;;;;;;25.95;15.88;;;;;;;10.66;63.22;99668.81;4336201;32;34184;-84
2021/04/21 00:37:44;;;;;;;25.95;16.33;;;;;;;10.57;63.26;99663.66;4337932;32;34481;-85
2021/04/21 00:40:18;;;;;;;25.08;16.83;;;;;;;10.74;62.85;99661.84;4350051;32;34211;-83
2021/04/21 00:42:57;;;;;;;23.42;16.58;;;;;;;10.71;62.83;99663.59;4349890;32;33666;-85
2021/04/21 00:45:44;;;;;;;24.20;16.50;;;;;;;10.76;62.54;99664.47;4337714;32;33187;-85
2021/04/21 00:48:22;;;;;;;24.67;16.80;;;;;;;10.66;62.79;99657.53;4338120;32;35075;-85
2021/04/21 00:50:54;;;;;;;22.80;16.58;;;;;;;10.72;62.72;99650.59;4350047;32;34159;-85
2021/04/21 00:53:40;;;;;;;25.58;17.20;;;;;;;10.71;62.59;99655.78;4350224;32;33332;-84
2021/04/21 00:56:23;;;;;;;22.13;16.05;;;;;;;10.50;63.00;99651.53;4338381;32;34115;-84
2021/04/21 00:59:02;;;;;;;27.83;15.82;;;;;;;10.38;62.84;99658.47;4338110;32;34746;-84
2021/04/21 01:01:31;;;;;;;24.85;16.95;;;;;;;10.56;62.34;99650.63;4337769;32;34664;-84
2021/04/21 01:04:00;;;;;;;25.67;17.23;;;;;;;10.61;62.31;99659.28;4349893;32;33138;-84
2021/04/21 01:06:36;;;;;;;25.62;17.87;;;;;;;10.50;62.36;99666.25;4349917;32;33730;-84
2021/04/21 01:09:07;;;;;;;25.05;16.35;;;;;;;10.59;62.04;99661.03;4338144;32;34455;-84
2021/04/21 01:11:45;;;;;;;24.12;17.12;;;;;;;10.63;61.89;99662.75;4349788;32;34303;-84
2021/04/21 01:14:15;;;;;;;21.27;16.02;;;;;;;10.55;61.91;99665.37;4350187;32;34653;-85
2021/04/21 01:16:43;;;;;;;25.90;16.50;;;;;;;10.25;62.43;99670.63;4349808;32;34635;-84
2021/04/21 01:19:39;;;;;;;26.77;17.45;;;;;;;10.11;62.81;99664.53;4349429;32;34946;-84
2021/04/21 01:22:14;;;;;;;25.45;16.85;;;;;;;10.07;62.92;99655.88;4362144;32;33939;-84
2021/04/21 01:24:50;;;;;;;24.27;16.10;;;;;;;10.28;62.33;99664.56;4324785;32;33060;-84
2021/04/21 01:27:20;;;;;;;27.17;18.20;;;;;;;10.13;62.60;99666.31;4337832;32;33798;-84
2021/04/21 01:29:53;;;;;;;24.60;17.45;;;;;;;10.10;62.58;99661.06;4350173;32;34793;-84
2021/04/21 01:32:25;;;;;;;24.95;16.90;;;;;;;10.03;62.61;99664.53;4337654;32;34343;-84
2021/04/21 01:34:54;;;;;;;24.67;16.98;;;;;;;10.13;62.35;99668.03;4349577;32;33808;-85
2021/04/21 01:37:34;;;;;;;23.12;16.48;;;;;;;10.07;62.46;99670.59;4337397;32;34307;-84
2021/04/21 01:40:20;;;;;;;26.17;18.02;;;;;;;9.96;62.86;99667.16;4325260;32;34243;-84
2021/04/21 01:42:52;;;;;;;24.85;15.45;;;;;;;9.99;62.39;99673.19;4337918;32;34637;-84
2021/04/21 01:45:24;;;;;;;22.30;15.55;;;;;;;9.97;62.28;99669.75;4349486;32;33597;-84
2021/04/21 01:47:53;;;;;;;26.35;17.58;;;;;;;9.98;62.37;99670.63;4336768;32;33676;-84
2021/04/21 01:50:21;;;;;;;24.10;16.90;;;;;;;10.02;62.14;99662.81;4325279;32;33751;-85
2021/04/21 01:52:57;;;;;;;24.40;16.73;;;;;;;9.77;62.44;99663.66;4361865;32;35353;-84
2021/04/21 01:55:37;;;;;;;27.02;17.02;;;;;;;9.63;62.44;99662.78;4361772;32;33567;-84
2021/04/21 01:58:11;;;;;;;28.15;18.60;;;;;;;9.73;62.41;99663.66;4349540;32;33533;-84
2021/04/21 02:00:42;;;;;;;28.05;18.37;;;;;;;9.73;62.47;99663.66;4349716;32;34419;-85
2021/04/21 02:03:52;;;;;;;23.35;16.33;;;;;;;9.92;62.15;99670.59;4349678;32;33884;-84
2021/04/21 02:06:44;;;;;;;26.67;16.52;;;;;;;9.86;62.24;99675.81;4328032;32;34180;-84
2021/04/21 02:09:23;;;;;;;23.52;16.80;;;;;;;9.80;62.23;99671.47;4349519;32;33292;-85
2021/04/21 02:12:05;;;;;;;24.33;17.08;;;;;;;9.74;62.23;99665.41;4349216;32;35227;-84
2021/04/21 02:14:55;;;;;;;23.47;16.50;;;;;;;9.64;62.28;99666.25;4337381;32;33665;-84
2021/04/21 02:17:38;;;;;;;27.13;16.70;;;;;;;9.59;62.42;99661.03;4349243;32;33750;-84
2021/04/21 02:20:13;;;;;;;25.40;16.95;;;;;;;9.52;62.79;99664.50;4349471;32;34715;-84
2021/04/21 02:23:02;;;;;;;23.50;16.52;;;;;;;9.61;62.41;99664.50;4349780;32;34725;-84
2021/04/21 02:25:53;;;;;;;24.02;17.05;;;;;;;9.48;62.57;99662.78;4337004;32;33911;-84
2021/04/21 02:28:27;;;;;;;29.98;18.23;;;;;;;9.31;62.97;99674.84;4362734;32;33239;-84
2021/04/21 02:31:45;;;;;;;29.75;18.67;;;;;;;9.14;63.45;99676.50;4361556;32;34531;-84
2021/04/21 02:34:23;;;;;;;23.98;17.40;;;;;;;9.27;62.94;99668.75;4343038;32;35111;-84
2021/04/21 02:36:58;;;;;;;28.48;18.83;;;;;;;9.18;63.16;99667.84;4349429;32;33462;-84
2021/04/21 02:39:35;;;;;;;27.42;18.80;;;;;;;9.32;63.01;99676.56;4349354;32;34027;-84
2021/04/21 02:42:05;;;;;;;26.95;18.35;;;;;;;9.28;63.44;99672.22;4362430;32;33967;-84
2021/04/21 02:45:11;;;;;;;28.92;18.33;;;;;;;9.47;62.71;99667.09;4349137;32;34636;-84
2021/04/21 02:47:42;;;;;;;27.13;17.98;;;;;;;9.49;62.52;99667.09;4349240;32;33575;-84
2021/04/21 02:50:21;;;;;;;28.83;19.02;;;;;;;9.35;62.97;99671.38;4361432;32;33564;-85
2021/04/21 02:53:09;;;;;;;27.13;18.80;;;;;;;9.30;62.82;99678.28;4349341;32;34073;-85
2021/04/21 02:56:12;;;;;;;29.48;20.35;;;;;;;9.32;62.88;99676.56;4349302;32;34395;-84
2021/04/21 02:58:51;;;;;;;30.15;20.23;;;;;;;9.40;62.71;99675.72;4348942;32;34666;-84
2021/04/21 03:01:31;;;;;;;29.00;20.55;;;;;;;9.13;63.71;99686.00;4348911;32;33205;-84
2021/04/21 03:04:36;;;;;;;31.65;21.83;;;;;;;9.23;63.49;99681.72;4349193;32;34397;-84
2021/04/21 03:07:07;;;;;;;33.78;21.98;;;;;;;9.17;63.64;99686.91;4349010;32;33820;-84
2021/04/21 03:09:58;;;;;;;36.40;21.52;;;;;;;9.18;63.86;99686.91;4336994;32;33610;-84
2021/04/21 03:12:27;;;;;;;34.90;20.92;;;;;;;9.37;63.40;99680.91;4349024;32;33751;-84
2021/04/21 03:15:03;;;;;;;37.00;22.48;;;;;;;9.10;64.08;99687.75;4336860;32;33797;-84
2021/04/21 03:17:31;;;;;;;34.28;22.50;;;;;;;9.21;64.03;99693.81;4348891;32;33901;-84
2021/04/21 03:20:20;;;;;;;36.00;23.70;;;;;;;9.28;63.59;99688.66;4348908;32;34008;-85
2021/04/21 03:22:51;;;;;;;30.67;21.65;;;;;;;9.22;64.00;99690.38;4337075;32;34809;-84
2021/04/21 03:25:28;;;;;;;33.97;21.62;;;;;;;9.26;63.85;99682.59;4348963;32;35078;-84
2021/04/21 03:27:58;;;;;;;30.85;20.75;;;;;;;9.39;63.51;99679.16;4336399;32;36502;-85
2021/04/21 03:30:29;;;;;;;30.35;20.35;;;;;;;9.42;63.32;99681.78;4362315;32;34023;-85
2021/04/21 03:33:08;;;;;;;28.60;20.30;;;;;;;9.32;63.56;99685.22;4348820;32;33896;-84
2021/04/21 03:35:37;;;;;;;29.12;20.65;;;;;;;9.41;63.27;99681.78;4348792;32;33888;-84
2021/04/21 03:38:10;;;;;;;34.03;21.95;;;;;;;9.14;63.64;99692.06;4348557;32;34222;-84
2021/04/21 03:40:38;;;;;;;32.20;21.45;;;;;;;9.16;63.71;99688.63;4336465;32;35185;-84
2021/04/21 03:43:06;;;;;;;32.95;21.42;;;;;;;9.21;63.58;99683.44;4336269;32;32770;-84
2021/04/21 03:45:34;;;;;;;33.65;20.60;;;;;;;9.36;62.92;99683.50;4360656;32;33160;-85
2021/04/21 03:48:03;;;;;;;30.77;20.62;;;;;;;9.27;63.06;99684.31;4348635;32;34335;-84
2021/04/21 03:50:31;;;;;;;34.65;20.88;;;;;;;9.37;62.85;99685.22;4348577;32;34690;-85
2021/04/21 03:53:04;;;;;;;29.98;19.92;;;;;;;9.46;62.59;99690.47;4348426;32;33369;-84
2021/04/21 03:55:33;;;;;;;32.80;20.40;;;;;;;9.46;62.47;99695.66;4336200;32;33390;-84
2021/04/21 03:58:06;;;;;;;32.45;20.48;;;;;;;9.18;63.09;99699.88;4336397;32;35200;-84
2021/04/21 04:00:35;;;;;;;30.73;20.40;;;;;;;9.27;62.75;99699.91;4348822;32;34030;-84
2021/04/21 04:03:09;;;;;;;29.77;20.23;;;;;;;9.28;62.76;99701.66;4348506;32;33405;-85
2021/04/21 04:05:54;;;;;;;30.65;20.42;;;;;;;9.28;62.48;99701.66;4336721;32;33678;-84
2021/04/21 04:08:25;;;;;;;33.55;21.27;;;;;;;9.06;63.33;99704.13;4336145;32;33958;-84
2021/04/21 04:10:53;;;;;;;32.00;21.83;;;;;;;9.22;63.03;99705.94;4348457;32;34466;-84
2021/04/21 04:13:23;;;;;;;33.05;20.80;;;;;;;9.35;62.59;99699.94;4348683;32;35151;-84
2021/04/21 04:15:51;;;;;;;30.98;22.02;;;;;;;9.38;62.69;99702.53;4348634;32;33798;-85
2021/04/21 04:18:19;;;;;;;33.08;22.48;;;;;;;9.21;63.24;99701.63;4335837;32;34738;-84
2021/04/21 04:20:48;;;;;;;34.40;22.70;;;;;;;9.11;63.45;99713.69;4348463;32;34020;-84
2021/04/21 04:23:18;;;;;;;31.00;21.00;;;;;;;9.25;63.43;99718.91;4348389;32;33867;-85
2021/04/21 04:25:49;;;;;;;34.78;22.58;;;;;;;9.32;63.43;99718.06;4335890;32;34439;-84
2021/04/21 04:28:19;;;;;;;36.72;24.75;;;;;;;9.31;63.43;99727.63;4348199;32;33999;-84
2021/04/21 04:30:46;;;;;;;36.20;22.45;;;;;;;9.34;63.62;99725.00;4336141;32;33986;-84
2021/04/21 04:33:15;;;;;;;35.83;23.42;;;;;;;9.35;63.70;99725.88;4348191;32;33433;-84
2021/04/21 04:35:42;;;;;;;34.63;23.15;;;;;;;9.42;63.74;99731.09;4348271;32;34582;-85
2021/04/21 04:38:11;;;;;;;34.65;24.00;;;;;;;9.47;63.78;99731.12;4348405;32;35240;-84
2021/04/21 04:40:39;;;;;;;32.72;22.83;;;;;;;9.68;63.41;99728.56;4348177;32;34235;-84
2021/04/21 04:43:08;;;;;;;35.30;22.62;;;;;;;9.62;63.77;99731.16;4348488;32;33385;-85
2021/04/21 04:45:37;;;;;;;37.45;23.62;;;;;;;9.68;63.78;99731.16;4348199;32;33756;-84
2021/04/21 04:48:07;;;;;;;33.67;22.60;;;;;;;9.75;63.74;99740.72;4335712;32;34479;-84
2021/04/21 04:50:39;;;;;;;36.30;23.70;;;;;;;9.79;63.83;99739.88;4348006;32;34251;-84
2021/04/21 04:53:06;;;;;;;38.20;25.12;;;;;;;9.74;64.17;99743.31;4348128;32;33329;-85
2021/04/21 04:55:35;;;;;;;36.13;25.12;;;;;;;9.87;63.90;99745.94;4348230;32;33249;-85
2021/04/21 04:58:02;;;;;;;37.95;25.80;;;;;;;9.99;63.70;99740.75;4347818;32;34857;-84
2021/04/21 05:00:30;;;;;;;35.30;25.55;;;;;;;10.12;63.54;99737.34;4347659;32;34269;-83
2021/04/21 05:03:14;;;;;;;36.92;25.77;;;;;;;10.19;63.88;99749.47;4347806;32;33760;-84
2021/04/21 05:05:43;;;;;;;40.00;26.33;;;;;;;10.30;63.87;99746.00;4335270;32;33440;-84
2021/04/21 05:08:16;;;;;;;41.72;27.00;;;;;;;10.34;64.14;99747.75;4347786;32;34452;-84
2021/04/21 05:11:04;;;;;;;39.38;26.75;;;;;;;10.46;63.78;99751.19;4335628;32;33526;-84
2021/04/21 05:13:44;;;;;;;34.03;24.98;;;;;;;10.49;64.17;99748.59;4347806;32;33704;-84
2021/04/21 05:16:12;;;;;;;42.20;27.65;;;;;;;10.55;64.21;99742.53;4359843;32;33848;-84
2021/04/21 05:19:08;;;;;;;38.30;26.17;;;;;;;10.46;64.71;99755.56;4347608;32;34238;-84
2021/04/21 05:22:14;;;;;;;35.70;25.10;;;;;;;10.65;64.21;99754.66;4358217;32;33920;-84
2021/04/21 05:25:03;;;;;;;37.83;25.85;;;;;;;10.71;64.30;99744.25;4350166;32;33113;-84
2021/04/21 05:28:11;;;;;;;39.78;26.90;;;;;;;10.86;64.70;99752.03;4361924;32;34159;-85
2021/04/21 05:31:04;;;;;;;34.67;24.70;;;;;;;11.03;64.45;99754.59;4337872;32;34372;-84
2021/04/21 05:34:06;;;;;;;40.65;26.08;;;;;;;11.13;64.36;99749.31;4349805;32;34154;-84
2021/04/21 05:36:56;;;;;;;41.70;27.55;;;;;;;11.22;64.31;99749.28;4363400;32;34092;-84
2021/04/21 05:39:53;;;;;;;33.20;24.85;;;;;;;11.49;63.81;99753.53;4349847;32;35100;-83
2021/04/21 05:42:57;;;;;;;33.85;24.40;;;;;;;11.67;62.50;99755.19;4337717;32;34292;-84
2021/04/21 05:45:51;;;;;;;37.63;25.05;;;;;;;11.82;62.52;99748.16;4361986;32;33948;-83
2021/04/21 05:49:12;;;;;;;34.67;25.30;;;;;;;11.77;63.50;99759.47;4349473;32;32899;-83
2021/04/21 05:52:28;;;;;;;30.85;23.38;;;;;;;11.76;64.09;99765.59;4304771;33;33365;-84
2021/04/21 05:55:15;;;;;;;28.60;21.10;;;;;;;11.97;63.28;99762.84;4279393;33;34023;-83
2021/04/21 05:58:05;;;;;;;30.83;22.75;;;;;;;12.08;62.17;99768.84;4361727;32;34393;-83
2021/04/21 06:01:03;;;;;;;30.35;22.25;;;;;;;12.24;62.54;99767.88;4334811;33;32747;-83
2021/04/21 06:03:32;;;;;;;30.15;22.87;;;;;;;12.53;61.21;99765.88;4349523;32;34625;-83
2021/04/21 06:06:03;;;;;;;29.48;22.08;;;;;;;12.52;60.99;99769.41;4349607;32;34529;-83
2021/04/21 06:08:32;;;;;;;31.48;23.70;;;;;;;12.56;60.75;99768.47;4347776;32;33497;-83
2021/04/21 06:11:00;;;;;;;31.35;21.98;;;;;;;12.85;61.02;99779.53;4339815;32;34794;-83
2021/04/21 06:13:33;;;;;;;26.90;21.15;;;;;;;13.13;59.35;99774.03;4324463;32;33558;-83
2021/04/21 06:16:00;;;;;;;31.83;23.23;;;;;;;13.12;58.28;99780.16;4361812;32;34441;-84
2021/04/21 06:18:28;;;;;;;40.97;28.62;;;;;;;13.15;60.11;99774.88;4363983;32;34963;-83
2021/04/21 06:20:55;;;;;;;61.13;43.87;;;;;;;13.21;59.47;99773.09;4340666;33;33605;-84
2021/04/21 06:23:24;;;;;;;53.30;37.80;;;;;;;13.21;59.96;99770.47;4348687;32;34224;-85
2021/04/21 06:25:58;;;;;;;29.12;22.92;;;;;;;13.60;59.35;99771.72;4352243;32;34459;-85
2021/04/21 06:28:28;;;;;;;29.50;23.90;;;;;;;13.78;57.11;99776.72;4377824;32;34738;-85
2021/04/21 06:31:09;;;;;;;41.85;29.75;;;;;;;13.72;59.63;99775.94;4352158;32;33005;-85
2021/04/21 06:33:42;;;;;;;40.88;30.58;;;;;;;14.00;59.36;99767.69;4377693;32;33844;-85
2021/04/21 06:36:11;;;;;;;33.47;25.05;;;;;;;13.92;58.52;99766.94;4351824;32;35143;-84
2021/04/21 06:38:40;;;;;;;33.47;25.73;;;;;;;14.25;55.75;99763.84;4364455;32;34634;-85
2021/04/21 06:41:08;;;;;;;30.23;25.12;;;;;;;14.39;58.23;99768.00;4347772;32;33359;-85
2021/04/21 06:43:37;;;;;;;31.05;24.65;;;;;;;14.68;57.57;99765.78;4351929;32;33727;-86
2021/04/21 06:46:07;;;;;;;33.30;23.83;;;;;;;14.66;57.18;99768.44;4364421;32;34328;-85
2021/04/21 06:48:36;;;;;;;29.27;24.90;;;;;;;14.82;54.87;99767.25;4351894;32;35058;-84
2021/04/21 06:51:13;;;;;;;33.53;25.52;;;;;;;14.77;54.88;99769.09;4352191;32;33139;-90
2021/04/21 06:53:42;;;;;;;31.83;25.48;;;;;;;14.78;55.02;99769.97;4346581;32;34270;-85
2021/04/21 06:56:11;;;;;;;33.13;25.55;;;;;;;14.89;56.14;99770.63;4354647;32;35329;-86
2021/04/21 06:58:39;;;;;;;30.60;26.05;;;;;;;14.50;56.07;99769.56;4364635;32;34308;-86
2021/04/21 07:01:11;;;;;;;35.85;26.67;;;;;;;15.05;55.37;99774.69;4340705;32;33291;-85
2021/04/21 07:03:39;;;;;;;33.67;25.98;;;;;;;15.24;54.14;99768.22;4364987;32;33801;-86
2021/04/21 07:06:08;;;;;;;35.28;27.70;;;;;;;15.07;54.57;99770.28;4351993;32;35103;-86
2021/04/21 07:08:40;;;;;;;35.67;27.15;;;;;;;14.96;54.92;99769.62;4327284;33;33485;-86
2021/04/21 07:11:24;;;;;;;31.50;25.10;;;;;;;15.16;55.19;99769.25;4343344;33;34767;-86
2021/04/21 07:13:51;;;;;;;31.00;23.58;;;;;;;15.34;55.16;99775.00;4322112;33;35130;-86
2021/04/21 07:16:28;;;;;;;36.22;25.75;;;;;;;15.47;52.66;99767.78;4349951;32;34380;-85
2021/04/21 07:18:58;;;;;;;34.10;25.42;;;;;;;15.70;54.15;99776.03;4337558;32;33618;-86
2021/04/21 07:21:28;;;;;;;30.20;24.92;;;;;;;15.25;54.17;99777.81;4338787;32;33745;-86
2021/04/21 07:23:58;;;;;;;33.30;25.50;;;;;;;15.04;54.43;99777.34;4335464;32;34318;-86
2021/04/21 07:26:38;;;;;;;32.92;25.45;;;;;;;15.22;55.13;99777.84;4348843;32;33872;-86
2021/04/21 07:29:08;;;;;;;31.35;25.45;;;;;;;15.27;54.66;99780.37;4324324;32;33914;-87
2021/04/21 07:31:37;;;;;;;34.38;26.45;;;;;;;15.55;55.18;99782.47;4349956;32;33081;-88
2021/04/21 07:34:32;;;;;;;30.58;24.60;;;;;;;15.10;54.36;99783.31;4353022;32;33523;-88
2021/04/21 07:37:04;;;;;;;32.38;25.40;;;;;;;15.21;53.73;99791.00;4365175;32;35214;-88
2021/04/21 07:39:32;;;;;;;33.78;26.15;;;;;;;15.47;53.27;99789.63;4352245;32;35201;-86
2021/04/21 07:42:00;;;;;;;33.92;27.23;;;;;;;15.03;54.86;99800.06;4364182;32;33026;-87
2021/04/21 07:44:36;;;;;;;33.85;26.62;;;;;;;15.57;54.15;99796.41;4351297;32;34453;-86
2021/04/21 07:47:07;;;;;;;33.42;26.92;;;;;;;15.84;53.08;99796.72;4337269;32;34403;-89
2021/04/21 07:49:37;;;;;;;38.65;27.80;;;;;;;15.63;53.97;99794.53;4349901;32;33911;-87
2021/04/21 07:52:07;;;;;;;31.83;24.50;;;;;;;15.65;53.31;99805.84;4349289;32;32507;-87
2021/04/21 07:54:35;;;;;;;30.80;24.83;;;;;;;15.71;53.43;99813.62;4337033;32;33907;-86
2021/04/21 07:57:23;;;;;;;31.80;24.98;;;;;;;15.27;53.06;99811.81;4336608;32;34084;-87
2021/04/21 07:59:50;;;;;;;31.87;24.17;;;;;;;15.75;52.91;99812.66;4352421;32;33925;-87
2021/04/21 08:02:19;;;;;;;31.08;22.85;;;;;;;15.33;53.52;99812.56;4337037;32;34307;-88
2021/04/21 08:04:58;;;;;;;28.98;22.55;;;;;;;15.94;52.00;99809.63;4349219;32;33828;-88
2021/04/21 08:07:29;;;;;;;31.08;22.80;;;;;;;16.01;52.36;99818.19;4349191;32;34931;-88
2021/04/21 08:09:58;;;;;;;28.38;21.92;;;;;;;15.96;51.75;99822.69;4349039;32;34022;-88
2021/04/21 08:12:31;;;;;;;26.48;20.60;;;;;;;15.84;50.71;99826.44;4349445;32;33377;-89
2021/04/21 08:15:04;;;;;;;26.27;21.00;;;;;;;16.05;50.64;99825.09;4348827;32;33562;-88
2021/04/21 08:17:51;;;;;;;27.17;19.60;;;;;;;16.14;50.61;99817.87;4352280;32;34855;-89
2021/04/21 08:20:24;;;;;;;26.58;20.02;;;;;;;16.18;49.18;99826.56;4360934;32;33728;-88
2021/04/21 08:23:00;;;;;;;26.65;20.42;;;;;;;16.31;50.08;99816.66;4346673;32;32892;-89
2021/04/21 08:25:28;;;;;;;27.73;19.12;;;;;;;16.54;47.90;99824.91;4333157;32;33236;-87
2021/04/21 08:27:56;;;;;;;27.20;19.83;;;;;;;16.64;47.02;99827.25;4348742;32;34389;-87
2021/04/21 08:30:26;;;;;;;21.48;17.05;;;;;;;16.47;46.32;99823.28;4335127;32;34352;-89
2021/04/21 08:32:53;;;;;;;25.05;17.65;;;;;;;16.49;47.27;99822.34;4330384;33;32924;-88
2021/04/21 08:35:21;;;;;;;28.10;21.80;;;;;;;16.99;45.60;99822.88;4344904;32;33688;-88
2021/04/21 08:37:49;;;;;;;23.85;17.77;;;;;;;17.30;46.18;99829.94;4334215;33;34449;-88
2021/04/21 08:40:21;;;;;;;25.92;18.60;;;;;;;17.19;45.73;99831.09;4347930;32;33787;-87
2021/04/21 08:42:55;;;;;;;23.52;18.40;;;;;;;17.40;45.98;99823.50;4336387;32;33231;-89
2021/04/21 08:45:23;;;;;;;29.48;20.85;;;;;;;17.52;44.52;99824.97;4324401;32;33465;-87
2021/04/21 08:47:54;;;;;;;34.95;23.15;;;;;;;17.24;45.14;99827.47;4320420;33;35529;-87
2021/04/21 08:50:24;;;;;;;24.25;18.37;;;;;;;17.38;46.00;99829.72;4330729;32;33598;-87
2021/04/21 08:52:56;;;;;;;23.60;18.65;;;;;;;17.48;44.72;99823.28;4355790;32;34016;-87
2021/04/21 08:55:29;;;;;;;26.08;19.30;;;;;;;17.56;45.29;99821.38;4362442;32;33286;-89
2021/04/21 08:57:58;;;;;;;26.02;19.58;;;;;;;17.41;45.19;99821.75;4363276;32;34699;-88
2021/04/21 09:00:25;;;;;;;24.37;18.77;;;;;;;17.62;45.23;99815.03;4352347;32;33391;-88
2021/04/21 09:02:52;;;;;;;22.10;18.75;;;;;;;17.58;43.98;99816.91;4352756;32;33429;-89
2021/04/21 09:05:20;;;;;;;24.17;18.80;;;;;;;17.71;43.33;99815.66;4352436;32;35091;-89
2021/04/21 09:07:48;;;;;;;22.65;16.98;;;;;;;17.62;42.68;99810.66;4337436;32;33997;-86
2021/04/21 09:10:17;;;;;;;30.05;16.42;;;;;;;17.37;43.52;99815.72;4337412;32;33876;-87
2021/04/21 09:12:48;;;;;;;24.55;16.55;;;;;;;17.75;42.79;99811.19;4337704;32;34083;-88
2021/04/21 09:15:21;;;;;;;22.87;17.50;;;;;;;17.72;42.03;99806.00;4326717;32;34630;-87
2021/04/21 09:17:51;;;;;;;21.92;15.98;;;;;;;17.76;42.15;99807.66;4337144;32;33970;-87
2021/04/21 09:20:21;;;;;;;18.55;15.25;;;;;;;18.11;41.36;99804.81;4337525;32;33653;-88
2021/04/21 09:23:23;;;;;;;18.37;15.40;;;;;;;18.24;39.91;99803.53;4341886;32;33384;-87
2021/04/21 09:25:57;;;;;;;19.55;14.68;;;;;;;17.99;42.04;99803.44;4338469;32;33295;-87
2021/04/21 09:28:44;;;;;;;20.52;16.20;;;;;;;18.35;40.96;99804.03;4338211;32;35157;-86
2021/04/21 09:31:16;;;;;;;19.27;15.18;;;;;;;18.38;40.60;99808.34;4338565;32;34474;-88
2021/04/21 09:34:11;;;;;;;16.40;11.80;;;;;;;18.20;41.87;99801.91;4339757;32;33178;-87
2021/04/21 09:36:51;;;;;;;16.58;13.65;;;;;;;18.55;38.24;99799.03;4338485;32;33778;-88
2021/04/21 09:39:37;;;;;;;18.70;13.68;;;;;;;18.45;37.60;99801.97;4351462;32;35684;-87
2021/04/21 09:42:31;;;;;;;20.33;15.30;;;;;;;18.78;39.41;99795.63;4344351;32;34994;-87
2021/04/21 09:45:06;;;;;;;21.40;15.70;;;;;;;18.52;39.50;99795.66;4350535;32;33402;-86
2021/04/21 09:48:29;;;;;;;21.15;17.00;;;;;;;18.79;39.71;99800.88;4342027;32;33980;-87
2021/04/21 09:51:35;;;;;;;22.65;17.75;;;;;;;18.77;41.00;99791.31;4342754;32;34708;-86
2021/04/21 09:54:03;;;;;;;20.58;15.75;;;;;;;18.49;39.64;99787.84;4361951;32;33553;-86
2021/04/21 09:56:36;;;;;;;21.25;16.83;;;;;;;18.79;39.36;99790.34;4338944;32;33200;-87
2021/04/21 09:59:04;;;;;;;27.67;17.37;;;;;;;19.04;40.37;99790.34;4337687;32;34136;-89
2021/04/21 10:01:38;;;;;;;18.67;16.33;;;;;;;19.04;39.03;99803.53;4355541;32;35418;-91
2021/04/21 10:04:24;;;;;;;25.27;17.95;;;;;;;18.86;38.78;99790.97;4364666;32;34526;-86
2021/04/21 10:07:02;;;;;;;21.80;16.05;;;;;;;18.86;38.09;99786.59;4345723;33;32852;-89
2021/04/21 10:09:32;;;;;;;17.65;12.70;;;;;;;19.22;39.63;99789.72;4334708;33;33175;-86
2021/04/21 10:12:13;;;;;;;13.27;10.85;;;;;;;19.05;35.48;99786.81;4358751;32;34751;-88
2021/04/21 10:14:42;;;;;;;12.75;10.07;;;;;;;19.28;32.97;99778.94;4348891;32;34346;-90
2021/04/21 10:17:10;;;;;;;14.02;10.57;;;;;;;19.31;36.11;99784.12;4337510;32;32822;-85
2021/04/21 10:19:41;;;;;;;14.20;10.80;;;;;;;19.61;34.81;99791.88;4352218;32;33867;-88
2021/04/21 10:22:13;;;;;;;15.80;11.25;;;;;;;19.78;34.36;99795.59;4347473;33;35629;-87
2021/04/21 10:24:40;;;;;;;13.25;10.25;;;;;;;19.73;32.61;99781.69;4337732;32;33574;-88
2021/04/21 10:27:08;;;;;;;14.40;11.02;;;;;;;19.63;33.62;99779.47;4362047;32;33430;-88
2021/04/21 10:29:38;;;;;;;12.35;9.57;;;;;;;19.56;33.70;99784.97;4352573;32;34248;-88
2021/04/21 10:32:06;;;;;;;14.18;10.13;;;;;;;19.29;32.72;99783.31;4364527;32;34813;-90
2021/04/21 10:34:34;;;;;;;12.20;9.45;;;;;;;19.61;34.13;99776.03;4352279;32;33960;-87
2021/04/21 10:37:02;;;;;;;13.15;9.88;;;;;;;19.89;33.94;99782.00;4356023;32;33540;-85
2021/04/21 10:39:35;;;;;;;13.57;10.55;;;;;;;20.07;33.44;99771.59;4349984;32;33710;-86
2021/04/21 10:42:04;;;;;;;14.27;11.27;;;;;;;20.31;33.91;99769.78;4349522;32;34845;-89
2021/04/21 10:44:32;;;;;;;16.85;11.05;;;;;;;20.11;34.12;99773.16;4362126;32;34137;-89
2021/04/21 10:47:10;;;;;;;13.73;11.68;;;;;;;20.52;33.17;99770.69;4337477;32;34046;-90
2021/04/21 10:50:04;;;;;;;15.88;11.40;;;;;;;20.05;34.23;99768.16;4337420;32;33450;-87
2021/04/21 10:52:31;;;;;;;13.73;10.50;;;;;;;20.04;34.56;99762.94;4341281;32;34400;-89
2021/04/21 10:55:00;;;;;;;14.45;10.60;;;;;;;20.22;34.28;99764.87;4361507;32;33568;-88
2021/04/21 10:57:42;;;;;;;12.63;10.25;;;;;;;20.12;33.72;99763.47;4350543;32;32975;-87
2021/04/21 11:00:25;;;;;;;10.40;8.48;;;;;;;19.84;33.57;99762.84;4352003;32;33437;-87
2021/04/21 11:02:59;;;;;;;;;;;;;;;19.96;32.87;99757.94;4351965;32;35332;-87
2021/04/21 11:05:39;;;;;;;11.55;8.63;;;;;;;20.06;32.96;99761.94;4364134;32;33841;-87
2021/04/21 11:08:07;;;;;;;10.55;8.27;;;;;;;20.16;30.65;99759.78;4359259;32;33650;-86
2021/04/21 11:10:45;;;;;;;8.60;7.55;;;;;;;20.37;30.81;99748.44;4356674;32;34266;-87
2021/04/21 11:13:15;;;;;;;13.00;10.18;;;;;;;20.36;30.29;99749.34;4349134;32;33711;-83
2021/04/21 11:15:47;;;;;;;11.32;9.70;;;;;;;20.05;33.91;99748.81;4348886;32;35192;-86
2021/04/21 11:18:21;;;;;;;13.27;8.30;;;;;;;20.35;34.34;99741.47;4349535;32;33302;-89
2021/04/21 11:20:49;;;;;;;11.80;8.80;;;;;;;20.46;32.32;99748.03;4336359;32;32759;-86
2021/04/21 11:23:53;;;;;;;9.60;8.38;;;;;;;20.25;31.58;99733.91;4348779;32;34540;-87
2021/04/21 11:26:30;;;;;;;10.20;7.87;;;;;;;20.38;29.75;99741.34;4340800;33;33838;-86
2021/04/21 11:28:58;;;;;;;10.90;9.05;;;;;;;20.73;29.10;99740.72;4349031;33;33445;-86
2021/04/21 11:31:41;;;;;;;9.10;8.20;;;;;;;20.73;30.63;99741.59;4348048;32;34021;-89
2021/04/21 11:34:26;;;;;;;10.77;8.35;;;;;;;20.30;30.98;99731.06;4334513;33;34037;-88
2021/04/21 11:37:07;;;;;;;10.52;6.82;;;;;;;20.30;30.57;99731.06;4335905;33;33951;-88
2021/04/21 11:39:43;;;;;;;8.05;5.87;;;;;;;20.43;30.17;99732.31;4347525;33;33042;-88
2021/04/21 11:42:30;;;;;;;7.35;6.20;;;;;;;20.03;27.64;99732.16;4362001;32;33810;-89
2021/04/21 11:45:19;;;;;;;10.75;7.32;;;;;;;19.77;31.16;99729.69;4349263;32;33791;-88
2021/04/21 11:47:49;;;;;;;8.73;6.85;;;;;;;19.67;32.05;99733.59;4349562;32;33388;-88
2021/04/21 11:50:41;;;;;;;10.73;7.78;;;;;;;19.96;32.11;99726.28;4349613;32;32977;-88
2021/04/21 11:53:14;;;;;;;10.68;6.60;;;;;;;19.74;32.35;99728.03;4334437;33;34235;-88
2021/04/21 11:55:45;;;;;;;11.50;9.23;;;;;;;19.45;31.35;99729.13;4322817;33;34129;-87
2021/04/21 11:58:21;;;;;;;12.15;8.95;;;;;;;19.08;33.76;99731.34;4323237;33;33485;-88
2021/04/21 12:00:57;;;;;;;9.45;8.00;;;;;;;18.98;34.81;99727.31;4334457;33;34647;-85